Algernon, Nebraska
Current Conditions -  °F | °C
As of 3:53 PM on Monday 20 Oct 2014 (Local Time) from KBBW Reporting Station
Clear Clear  
Wind Chill: 76°   Ceiling: Unl
Heat Index: 76°   Visibility: 10mi
Dew Point: 44°   Wind: 8mph
Humidity: 32%   Direction: 180°S
Pressure: 30.07"   Gusts: NA
Location:  41.1632°N, 99.3112°W
Report Text: KBBW 202053Z AUTO 18007KT 10SM CLR 24/07 A3007 RMK AO2 SLP174 T02440067 56019
Loading
Personal Weather Stations






























Interactive Weather Map
Tropical Storm Tracking
New forecast layout! Learn more

10-Day Weather Forecast

Advertisements
Track Severe Weather on mobile